sensor_id;sensor_type;location;lat;lon;timestamp;P1;durP1;ratioP1;P2;durP2;ratioP2
3767;SDS011;1899;49.966;7.106;2023-05-10T00:01:12;2.37;;;1.47;;
3767;SDS011;1899;49.966;7.106;2023-05-10T00:03:38;3.30;;;1.90;;
3767;SDS011;1899;49.966;7.106;2023-05-10T00:06:03;2.33;;;2.00;;
3767;SDS011;1899;49.966;7.106;2023-05-10T00:08:28;3.23;;;1.37;;
3767;SDS011;1899;49.966;7.106;2023-05-10T00:10:53;1.50;;;1.40;;
3767;SDS011;1899;49.966;7.106;2023-05-10T00:13:19;3.63;;;1.53;;
3767;SDS011;1899;49.966;7.106;2023-05-10T00:15:44;1.87;;;1.77;;
3767;SDS011;1899;49.966;7.106;2023-05-10T00:18:10;3.70;;;1.60;;
3767;SDS011;1899;49.966;7.106;2023-05-10T00:20:35;2.40;;;1.57;;
3767;SDS011;1899;49.966;7.106;2023-05-10T00:23:00;2.60;;;1.90;;
3767;SDS011;1899;49.966;7.106;2023-05-10T00:25:26;1.97;;;1.80;;
3767;SDS011;1899;49.966;7.106;2023-05-10T00:27:51;1.83;;;1.73;;
3767;SDS011;1899;49.966;7.106;2023-05-10T00:30:16;2.07;;;1.87;;
3767;SDS011;1899;49.966;7.106;2023-05-10T00:32:42;2.20;;;1.87;;
3767;SDS011;1899;49.966;7.106;2023-05-10T00:35:08;1.70;;;1.60;;
3767;SDS011;1899;49.966;7.106;2023-05-10T00:37:33;2.37;;;2.20;;
3767;SDS011;1899;49.966;7.106;2023-05-10T00:39:59;3.77;;;2.30;;
3767;SDS011;1899;49.966;7.106;2023-05-10T00:42:24;2.70;;;2.13;;
3767;SDS011;1899;49.966;7.106;2023-05-10T00:44:49;1.60;;;1.50;;
3767;SDS011;1899;49.966;7.106;2023-05-10T00:47:15;2.50;;;2.30;;
3767;SDS011;1899;49.966;7.106;2023-05-10T00:49:40;2.30;;;2.10;;
3767;SDS011;1899;49.966;7.106;2023-05-10T00:52:06;2.60;;;2.40;;
3767;SDS011;1899;49.966;7.106;2023-05-10T00:54:31;4.23;;;2.80;;
3767;SDS011;1899;49.966;7.106;2023-05-10T00:56:57;6.10;;;2.47;;
3767;SDS011;1899;49.966;7.106;2023-05-10T00:59:23;3.10;;;2.10;;
3767;SDS011;1899;49.966;7.106;2023-05-10T01:01:48;2.60;;;1.70;;
3767;SDS011;1899;49.966;7.106;2023-05-10T01:04:14;1.93;;;1.80;;
3767;SDS011;1899;49.966;7.106;2023-05-10T01:06:40;2.33;;;2.20;;
3767;SDS011;1899;49.966;7.106;2023-05-10T01:09:05;2.50;;;2.30;;
3767;SDS011;1899;49.966;7.106;2023-05-10T01:11:32;2.53;;;2.37;;
3767;SDS011;1899;49.966;7.106;2023-05-10T01:13:57;2.27;;;2.07;;
3767;SDS011;1899;49.966;7.106;2023-05-10T01:16:23;2.60;;;2.23;;
3767;SDS011;1899;49.966;7.106;2023-05-10T01:18:49;2.10;;;2.00;;
3767;SDS011;1899;49.966;7.106;2023-05-10T01:21:19;2.17;;;1.97;;
3767;SDS011;1899;49.966;7.106;2023-05-10T01:23:57;2.20;;;2.10;;
3767;SDS011;1899;49.966;7.106;2023-05-10T01:34:13;2.37;;;2.13;;
3767;SDS011;1899;49.966;7.106;2023-05-10T01:37:15;3.17;;;2.87;;
3767;SDS011;1899;49.966;7.106;2023-05-10T01:39:35;2.83;;;2.60;;
3767;SDS011;1899;49.966;7.106;2023-05-10T01:42:03;2.17;;;2.07;;
3767;SDS011;1899;49.966;7.106;2023-05-10T01:47:05;3.23;;;2.57;;
3767;SDS011;1899;49.966;7.106;2023-05-10T01:49:32;2.27;;;2.00;;
3767;SDS011;1899;49.966;7.106;2023-05-10T01:52:00;3.30;;;2.70;;
3767;SDS011;1899;49.966;7.106;2023-05-10T01:54:27;3.20;;;2.47;;
3767;SDS011;1899;49.966;7.106;2023-05-10T01:57:01;3.17;;;2.47;;
3767;SDS011;1899;49.966;7.106;2023-05-10T01:59:29;2.70;;;1.90;;
3767;SDS011;1899;49.966;7.106;2023-05-10T02:01:56;2.80;;;2.50;;
3767;SDS011;1899;49.966;7.106;2023-05-10T02:04:22;2.70;;;2.50;;
3767;SDS011;1899;49.966;7.106;2023-05-10T02:06:48;2.50;;;2.30;;
3767;SDS011;1899;49.966;7.106;2023-05-10T02:09:14;2.67;;;2.40;;
3767;SDS011;1899;49.966;7.106;2023-05-10T02:11:41;3.27;;;2.97;;
3767;SDS011;1899;49.966;7.106;2023-05-10T02:14:07;4.73;;;2.70;;
3767;SDS011;1899;49.966;7.106;2023-05-10T02:16:34;6.80;;;2.53;;
3767;SDS011;1899;49.966;7.106;2023-05-10T02:19:00;3.40;;;2.57;;
3767;SDS011;1899;49.966;7.106;2023-05-10T02:21:26;4.10;;;2.60;;
3767;SDS011;1899;49.966;7.106;2023-05-10T02:23:52;3.43;;;2.50;;
3767;SDS011;1899;49.966;7.106;2023-05-10T02:26:18;2.97;;;2.30;;
3767;SDS011;1899;49.966;7.106;2023-05-10T02:28:46;7.80;;;3.40;;
3767;SDS011;1899;49.966;7.106;2023-05-10T02:31:12;4.60;;;2.97;;
3767;SDS011;1899;49.966;7.106;2023-05-10T02:33:41;3.50;;;2.90;;
3767;SDS011;1899;49.966;7.106;2023-05-10T02:36:07;3.03;;;2.83;;
3767;SDS011;1899;49.966;7.106;2023-05-10T02:38:33;3.87;;;2.43;;
3767;SDS011;1899;49.966;7.106;2023-05-10T02:41:00;5.47;;;3.10;;
3767;SDS011;1899;49.966;7.106;2023-05-10T02:43:26;3.53;;;3.23;;
3767;SDS011;1899;49.966;7.106;2023-05-10T02:45:53;4.70;;;3.53;;
3767;SDS011;1899;49.966;7.106;2023-05-10T02:48:18;5.30;;;3.40;;
3767;SDS011;1899;49.966;7.106;2023-05-10T02:50:44;3.67;;;2.77;;
3767;SDS011;1899;49.966;7.106;2023-05-10T02:53:10;5.47;;;3.43;;
3767;SDS011;1899;49.966;7.106;2023-05-10T02:55:37;3.30;;;3.00;;
3767;SDS011;1899;49.966;7.106;2023-05-10T02:58:03;2.90;;;2.70;;
3767;SDS011;1899;49.966;7.106;2023-05-10T03:00:28;2.57;;;2.37;;
3767;SDS011;1899;49.966;7.106;2023-05-10T03:02:54;4.70;;;2.77;;
3767;SDS011;1899;49.966;7.106;2023-05-10T03:05:19;2.63;;;2.43;;
3767;SDS011;1899;49.966;7.106;2023-05-10T03:07:45;3.07;;;2.63;;
3767;SDS011;1899;49.966;7.106;2023-05-10T03:10:10;7.43;;;3.33;;
3767;SDS011;1899;49.966;7.106;2023-05-10T03:18:23;4.63;;;2.73;;
3767;SDS011;1899;49.966;7.106;2023-05-10T03:20:55;3.73;;;2.77;;
3767;SDS011;1899;49.966;7.106;2023-05-10T03:23:25;4.10;;;3.30;;
3767;SDS011;1899;49.966;7.106;2023-05-10T03:25:52;3.30;;;3.00;;
3767;SDS011;1899;49.966;7.106;2023-05-10T03:28:17;3.67;;;3.37;;
3767;SDS011;1899;49.966;7.106;2023-05-10T03:30:43;4.33;;;2.70;;
3767;SDS011;1899;49.966;7.106;2023-05-10T03:33:09;4.90;;;3.30;;
3767;SDS011;1899;49.966;7.106;2023-05-10T03:35:34;3.90;;;3.33;;
3767;SDS011;1899;49.966;7.106;2023-05-10T03:38:00;5.40;;;3.40;;
3767;SDS011;1899;49.966;7.106;2023-05-10T03:40:25;5.53;;;3.20;;
3767;SDS011;1899;49.966;7.106;2023-05-10T03:42:51;3.40;;;3.00;;
3767;SDS011;1899;49.966;7.106;2023-05-10T03:45:16;4.37;;;3.23;;
3767;SDS011;1899;49.966;7.106;2023-05-10T03:47:42;4.90;;;3.67;;
3767;SDS011;1899;49.966;7.106;2023-05-10T03:50:07;4.07;;;3.30;;
3767;SDS011;1899;49.966;7.106;2023-05-10T03:52:32;4.60;;;2.70;;
3767;SDS011;1899;49.966;7.106;2023-05-10T03:54:58;6.40;;;3.53;;
3767;SDS011;1899;49.966;7.106;2023-05-10T03:57:23;4.60;;;3.40;;
3767;SDS011;1899;49.966;7.106;2023-05-10T03:59:48;4.30;;;2.90;;
3767;SDS011;1899;49.966;7.106;2023-05-10T04:02:13;4.13;;;3.10;;
3767;SDS011;1899;49.966;7.106;2023-05-10T04:04:40;7.97;;;2.83;;
3767;SDS011;1899;49.966;7.106;2023-05-10T04:07:05;4.90;;;4.37;;
3767;SDS011;1899;49.966;7.106;2023-05-10T04:09:30;6.73;;;3.37;;
3767;SDS011;1899;49.966;7.106;2023-05-10T04:11:56;8.33;;;4.07;;
3767;SDS011;1899;49.966;7.106;2023-05-10T04:14:21;3.80;;;2.40;;
3767;SDS011;1899;49.966;7.106;2023-05-10T04:16:46;3.10;;;2.80;;
3767;SDS011;1899;49.966;7.106;2023-05-10T04:19:12;4.03;;;2.93;;
3767;SDS011;1899;49.966;7.106;2023-05-10T04:21:37;5.20;;;2.80;;
3767;SDS011;1899;49.966;7.106;2023-05-10T04:24:02;6.30;;;3.13;;
3767;SDS011;1899;49.966;7.106;2023-05-10T04:26:28;5.17;;;2.60;;
3767;SDS011;1899;49.966;7.106;2023-05-10T04:28:53;3.30;;;2.30;;
3767;SDS011;1899;49.966;7.106;2023-05-10T04:31:18;4.13;;;2.97;;
3767;SDS011;1899;49.966;7.106;2023-05-10T04:33:43;3.30;;;3.00;;
3767;SDS011;1899;49.966;7.106;2023-05-10T04:36:09;5.97;;;2.90;;
3767;SDS011;1899;49.966;7.106;2023-05-10T04:38:34;3.50;;;2.67;;
3767;SDS011;1899;49.966;7.106;2023-05-10T04:41:09;4.40;;;3.00;;
3767;SDS011;1899;49.966;7.106;2023-05-10T04:43:34;5.03;;;3.00;;
3767;SDS011;1899;49.966;7.106;2023-05-10T04:45:59;3.97;;;3.10;;
3767;SDS011;1899;49.966;7.106;2023-05-10T04:48:28;7.50;;;3.20;;
3767;SDS011;1899;49.966;7.106;2023-05-10T04:50:53;7.73;;;3.00;;
3767;SDS011;1899;49.966;7.106;2023-05-10T04:53:18;3.30;;;2.70;;
3767;SDS011;1899;49.966;7.106;2023-05-10T04:55:44;4.77;;;2.63;;
3767;SDS011;1899;49.966;7.106;2023-05-10T04:58:09;4.30;;;3.00;;
3767;SDS011;1899;49.966;7.106;2023-05-10T05:00:34;3.37;;;2.70;;
3767;SDS011;1899;49.966;7.106;2023-05-10T05:03:00;4.17;;;2.40;;
3767;SDS011;1899;49.966;7.106;2023-05-10T05:05:25;6.83;;;3.00;;
3767;SDS011;1899;49.966;7.106;2023-05-10T05:07:51;3.97;;;2.90;;
3767;SDS011;1899;49.966;7.106;2023-05-10T05:10:16;4.27;;;3.40;;
3767;SDS011;1899;49.966;7.106;2023-05-10T05:12:41;3.90;;;3.00;;
3767;SDS011;1899;49.966;7.106;2023-05-10T05:15:06;6.77;;;3.77;;
3767;SDS011;1899;49.966;7.106;2023-05-10T05:17:34;3.27;;;2.97;;
3767;SDS011;1899;49.966;7.106;2023-05-10T05:19:59;5.20;;;2.93;;
3767;SDS011;1899;49.966;7.106;2023-05-10T05:22:24;3.50;;;3.00;;
3767;SDS011;1899;49.966;7.106;2023-05-10T05:24:56;3.33;;;3.03;;
3767;SDS011;1899;49.966;7.106;2023-05-10T05:27:23;3.53;;;2.87;;
3767;SDS011;1899;49.966;7.106;2023-05-10T05:29:56;6.30;;;3.07;;
3767;SDS011;1899;49.966;7.106;2023-05-10T05:32:21;6.27;;;3.67;;
3767;SDS011;1899;49.966;7.106;2023-05-10T05:34:47;9.87;;;3.37;;
3767;SDS011;1899;49.966;7.106;2023-05-10T05:37:13;3.90;;;2.93;;
3767;SDS011;1899;49.966;7.106;2023-05-10T05:39:38;4.50;;;2.53;;
3767;SDS011;1899;49.966;7.106;2023-05-10T05:42:03;3.87;;;2.70;;
3767;SDS011;1899;49.966;7.106;2023-05-10T05:44:28;3.60;;;3.20;;
3767;SDS011;1899;49.966;7.106;2023-05-10T05:46:54;4.50;;;3.00;;
3767;SDS011;1899;49.966;7.106;2023-05-10T05:49:19;6.10;;;2.60;;
3767;SDS011;1899;49.966;7.106;2023-05-10T05:51:44;5.10;;;2.97;;
3767;SDS011;1899;49.966;7.106;2023-05-10T05:54:10;6.93;;;3.00;;
3767;SDS011;1899;49.966;7.106;2023-05-10T05:56:35;3.10;;;2.90;;
3767;SDS011;1899;49.966;7.106;2023-05-10T05:59:00;3.80;;;2.70;;
3767;SDS011;1899;49.966;7.106;2023-05-10T06:01:25;4.70;;;2.93;;
3767;SDS011;1899;49.966;7.106;2023-05-10T06:03:50;7.03;;;2.60;;
3767;SDS011;1899;49.966;7.106;2023-05-10T06:06:16;6.43;;;3.30;;
3767;SDS011;1899;49.966;7.106;2023-05-10T06:08:41;3.53;;;3.10;;
3767;SDS011;1899;49.966;7.106;2023-05-10T06:11:06;3.77;;;2.50;;
3767;SDS011;1899;49.966;7.106;2023-05-10T06:13:31;3.23;;;2.83;;
3767;SDS011;1899;49.966;7.106;2023-05-10T06:15:58;3.40;;;3.10;;
3767;SDS011;1899;49.966;7.106;2023-05-10T06:18:23;4.43;;;3.57;;
3767;SDS011;1899;49.966;7.106;2023-05-10T06:20:49;4.00;;;3.57;;
3767;SDS011;1899;49.966;7.106;2023-05-10T06:23:14;5.60;;;3.50;;
3767;SDS011;1899;49.966;7.106;2023-05-10T06:25:40;4.40;;;3.53;;
3767;SDS011;1899;49.966;7.106;2023-05-10T06:28:05;3.10;;;2.83;;
3767;SDS011;1899;49.966;7.106;2023-05-10T06:30:30;4.50;;;3.10;;
3767;SDS011;1899;49.966;7.106;2023-05-10T06:32:56;3.67;;;3.20;;
3767;SDS011;1899;49.966;7.106;2023-05-10T06:35:21;4.20;;;3.33;;
3767;SDS011;1899;49.966;7.106;2023-05-10T06:37:46;5.63;;;2.40;;
3767;SDS011;1899;49.966;7.106;2023-05-10T06:40:12;2.70;;;2.50;;
3767;SDS011;1899;49.966;7.106;2023-05-10T06:42:37;5.10;;;2.27;;
3767;SDS011;1899;49.966;7.106;2023-05-10T06:45:03;3.10;;;1.67;;
3767;SDS011;1899;49.966;7.106;2023-05-10T06:47:28;1.90;;;1.80;;
3767;SDS011;1899;49.966;7.106;2023-05-10T06:49:53;2.83;;;1.63;;
3767;SDS011;1899;49.966;7.106;2023-05-10T06:52:18;2.50;;;1.70;;
3767;SDS011;1899;49.966;7.106;2023-05-10T06:54:44;2.83;;;2.00;;
3767;SDS011;1899;49.966;7.106;2023-05-10T06:57:09;2.13;;;1.50;;
3767;SDS011;1899;49.966;7.106;2023-05-10T06:59:34;1.40;;;1.30;;
3767;SDS011;1899;49.966;7.106;2023-05-10T07:02:01;2.50;;;1.43;;
3767;SDS011;1899;49.966;7.106;2023-05-10T07:04:26;1.63;;;1.20;;
3767;SDS011;1899;49.966;7.106;2023-05-10T07:06:52;1.90;;;1.60;;
3767;SDS011;1899;49.966;7.106;2023-05-10T07:09:18;1.73;;;1.30;;
3767;SDS011;1899;49.966;7.106;2023-05-10T07:11:43;1.57;;;1.33;;
3767;SDS011;1899;49.966;7.106;2023-05-10T07:14:08;1.80;;;1.43;;
3767;SDS011;1899;49.966;7.106;2023-05-10T07:16:33;2.60;;;1.60;;
3767;SDS011;1899;49.966;7.106;2023-05-10T07:18:59;1.50;;;1.40;;
3767;SDS011;1899;49.966;7.106;2023-05-10T07:21:24;3.10;;;1.60;;
3767;SDS011;1899;49.966;7.106;2023-05-10T07:23:49;3.70;;;1.57;;
3767;SDS011;1899;49.966;7.106;2023-05-10T07:26:15;1.30;;;1.20;;
3767;SDS011;1899;49.966;7.106;2023-05-10T07:28:40;2.00;;;1.30;;
3767;SDS011;1899;49.966;7.106;2023-05-10T07:31:05;2.20;;;1.10;;
3767;SDS011;1899;49.966;7.106;2023-05-10T07:33:31;1.50;;;1.00;;
3767;SDS011;1899;49.966;7.106;2023-05-10T07:35:56;2.77;;;1.30;;
3767;SDS011;1899;49.966;7.106;2023-05-10T07:38:21;1.40;;;1.30;;
3767;SDS011;1899;49.966;7.106;2023-05-10T07:40:47;1.30;;;1.20;;
3767;SDS011;1899;49.966;7.106;2023-05-10T07:43:12;2.23;;;1.00;;
3767;SDS011;1899;49.966;7.106;2023-05-10T07:45:37;0.90;;;0.90;;
3767;SDS011;1899;49.966;7.106;2023-05-10T07:48:02;1.83;;;1.10;;
3767;SDS011;1899;49.966;7.106;2023-05-10T07:50:28;1.20;;;1.10;;
3767;SDS011;1899;49.966;7.106;2023-05-10T07:52:53;1.07;;;0.90;;
3767;SDS011;1899;49.966;7.106;2023-05-10T07:55:18;1.73;;;1.03;;
3767;SDS011;1899;49.966;7.106;2023-05-10T07:57:46;1.87;;;1.00;;
3767;SDS011;1899;49.966;7.106;2023-05-10T08:00:12;1.10;;;0.90;;
3767;SDS011;1899;49.966;7.106;2023-05-10T08:02:37;1.10;;;0.80;;
3767;SDS011;1899;49.966;7.106;2023-05-10T08:05:03;1.57;;;0.70;;
3767;SDS011;1899;49.966;7.106;2023-05-10T08:07:28;4.17;;;0.80;;
3767;SDS011;1899;49.966;7.106;2023-05-10T08:09:53;1.13;;;0.80;;
3767;SDS011;1899;49.966;7.106;2023-05-10T08:12:19;1.00;;;0.70;;
3767;SDS011;1899;49.966;7.106;2023-05-10T08:14:44;1.90;;;1.50;;
3767;SDS011;1899;49.966;7.106;2023-05-10T08:17:09;1.13;;;0.80;;
3767;SDS011;1899;49.966;7.106;2023-05-10T08:19:34;2.70;;;0.90;;
3767;SDS011;1899;49.966;7.106;2023-05-10T08:22:00;0.80;;;0.77;;
3767;SDS011;1899;49.966;7.106;2023-05-10T08:24:25;1.67;;;0.90;;
3767;SDS011;1899;49.966;7.106;2023-05-10T08:26:50;2.60;;;0.80;;
3767;SDS011;1899;49.966;7.106;2023-05-10T08:29:15;1.60;;;1.00;;
3767;SDS011;1899;49.966;7.106;2023-05-10T08:31:41;0.97;;;0.67;;
3767;SDS011;1899;49.966;7.106;2023-05-10T08:34:06;1.00;;;0.70;;
3767;SDS011;1899;49.966;7.106;2023-05-10T08:36:31;1.13;;;0.67;;
3767;SDS011;1899;49.966;7.106;2023-05-10T08:38:57;0.90;;;0.60;;
3767;SDS011;1899;49.966;7.106;2023-05-10T08:41:22;1.63;;;0.83;;
3767;SDS011;1899;49.966;7.106;2023-05-10T08:43:52;1.07;;;0.70;;
3767;SDS011;1899;49.966;7.106;2023-05-10T08:46:18;1.10;;;0.83;;
3767;SDS011;1899;49.966;7.106;2023-05-10T08:48:44;1.03;;;0.73;;
3767;SDS011;1899;49.966;7.106;2023-05-10T08:51:10;2.57;;;0.87;;
3767;SDS011;1899;49.966;7.106;2023-05-10T08:53:37;1.30;;;0.80;;
3767;SDS011;1899;49.966;7.106;2023-05-10T08:56:03;2.70;;;1.13;;
3767;SDS011;1899;49.966;7.106;2023-05-10T08:58:29;1.20;;;1.10;;
3767;SDS011;1899;49.966;7.106;2023-05-10T09:00:54;1.30;;;0.90;;
3767;SDS011;1899;49.966;7.106;2023-05-10T09:03:20;1.10;;;1.00;;
3767;SDS011;1899;49.966;7.106;2023-05-10T09:05:45;0.90;;;0.70;;
3767;SDS011;1899;49.966;7.106;2023-05-10T09:08:11;4.70;;;1.10;;
3767;SDS011;1899;49.966;7.106;2023-05-10T09:10:37;1.20;;;0.80;;
3767;SDS011;1899;49.966;7.106;2023-05-10T09:13:03;2.50;;;0.83;;
3767;SDS011;1899;49.966;7.106;2023-05-10T09:15:28;0.83;;;0.80;;
3767;SDS011;1899;49.966;7.106;2023-05-10T09:17:54;0.90;;;0.77;;
3767;SDS011;1899;49.966;7.106;2023-05-10T09:20:19;1.00;;;0.70;;
3767;SDS011;1899;49.966;7.106;2023-05-10T09:22:45;2.13;;;0.90;;
3767;SDS011;1899;49.966;7.106;2023-05-10T09:25:11;1.10;;;0.70;;
3767;SDS011;1899;49.966;7.106;2023-05-10T09:27:37;1.87;;;1.10;;
3767;SDS011;1899;49.966;7.106;2023-05-10T09:30:03;2.20;;;0.90;;
3767;SDS011;1899;49.966;7.106;2023-05-10T09:32:45;2.80;;;0.83;;
3767;SDS011;1899;49.966;7.106;2023-05-10T09:35:14;2.03;;;0.87;;
3767;SDS011;1899;49.966;7.106;2023-05-10T09:37:40;2.63;;;1.50;;
3767;SDS011;1899;49.966;7.106;2023-05-10T09:40:06;1.53;;;0.80;;
3767;SDS011;1899;49.966;7.106;2023-05-10T09:42:33;0.90;;;0.77;;
3767;SDS011;1899;49.966;7.106;2023-05-10T09:45:05;1.57;;;0.83;;
3767;SDS011;1899;49.966;7.106;2023-05-10T09:47:33;1.77;;;0.70;;
3767;SDS011;1899;49.966;7.106;2023-05-10T09:49:59;1.30;;;1.20;;
3767;SDS011;1899;49.966;7.106;2023-05-10T09:52:45;1.10;;;0.73;;
3767;SDS011;1899;49.966;7.106;2023-05-10T09:55:11;1.23;;;0.90;;
3767;SDS011;1899;49.966;7.106;2023-05-10T09:57:37;1.10;;;0.70;;
3767;SDS011;1899;49.966;7.106;2023-05-10T10:00:02;1.57;;;0.80;;
3767;SDS011;1899;49.966;7.106;2023-05-10T10:02:30;1.10;;;0.80;;
3767;SDS011;1899;49.966;7.106;2023-05-10T10:04:55;1.00;;;0.90;;
3767;SDS011;1899;49.966;7.106;2023-05-10T10:07:24;2.80;;;0.80;;
3767;SDS011;1899;49.966;7.106;2023-05-10T10:09:50;0.90;;;0.80;;
3767;SDS011;1899;49.966;7.106;2023-05-10T10:12:15;2.73;;;1.10;;
3767;SDS011;1899;49.966;7.106;2023-05-10T10:14:41;3.63;;;1.63;;
3767;SDS011;1899;49.966;7.106;2023-05-10T10:17:06;6.97;;;1.00;;
3767;SDS011;1899;49.966;7.106;2023-05-10T10:19:35;1.00;;;0.70;;
3767;SDS011;1899;49.966;7.106;2023-05-10T10:22:00;1.03;;;0.80;;
3767;SDS011;1899;49.966;7.106;2023-05-10T10:24:26;1.77;;;0.90;;
3767;SDS011;1899;49.966;7.106;2023-05-10T10:26:52;0.80;;;0.80;;
3767;SDS011;1899;49.966;7.106;2023-05-10T10:31:45;1.17;;;1.07;;
3767;SDS011;1899;49.966;7.106;2023-05-10T10:34:45;1.20;;;0.80;;
3767;SDS011;1899;49.966;7.106;2023-05-10T10:37:04;1.63;;;1.03;;
3767;SDS011;1899;49.966;7.106;2023-05-10T10:39:29;1.00;;;0.90;;
3767;SDS011;1899;49.966;7.106;2023-05-10T10:41:55;1.50;;;1.17;;
3767;SDS011;1899;49.966;7.106;2023-05-10T10:44:25;1.40;;;1.00;;
3767;SDS011;1899;49.966;7.106;2023-05-10T10:49:30;3.27;;;1.13;;
3767;SDS011;1899;49.966;7.106;2023-05-10T10:54:49;3.53;;;1.57;;
3767;SDS011;1899;49.966;7.106;2023-05-10T10:57:14;3.40;;;1.70;;
3767;SDS011;1899;49.966;7.106;2023-05-10T10:59:43;3.37;;;1.63;;
3767;SDS011;1899;49.966;7.106;2023-05-10T11:02:09;1.93;;;1.30;;
3767;SDS011;1899;49.966;7.106;2023-05-10T11:04:43;1.77;;;1.40;;
3767;SDS011;1899;49.966;7.106;2023-05-10T11:07:17;1.30;;;1.20;;
3767;SDS011;1899;49.966;7.106;2023-05-10T11:09:42;1.27;;;1.17;;
3767;SDS011;1899;49.966;7.106;2023-05-10T11:12:08;2.63;;;1.53;;
3767;SDS011;1899;49.966;7.106;2023-05-10T11:14:33;2.43;;;1.50;;
3767;SDS011;1899;49.966;7.106;2023-05-10T11:16:59;2.67;;;1.13;;
3767;SDS011;1899;49.966;7.106;2023-05-10T11:19:27;1.53;;;1.43;;
3767;SDS011;1899;49.966;7.106;2023-05-10T11:24:29;2.20;;;1.80;;
3767;SDS011;1899;49.966;7.106;2023-05-10T11:26:55;2.57;;;1.67;;
3767;SDS011;1899;49.966;7.106;2023-05-10T11:29:21;1.47;;;1.37;;
3767;SDS011;1899;49.966;7.106;2023-05-10T11:31:46;2.60;;;1.80;;
3767;SDS011;1899;49.966;7.106;2023-05-10T11:34:22;3.53;;;1.60;;
3767;SDS011;1899;49.966;7.106;2023-05-10T11:36:50;2.10;;;1.50;;
3767;SDS011;1899;49.966;7.106;2023-05-10T11:39:16;1.60;;;1.50;;
3767;SDS011;1899;49.966;7.106;2023-05-10T11:41:41;2.47;;;1.60;;
3767;SDS011;1899;49.966;7.106;2023-05-10T11:44:06;2.87;;;2.00;;
3767;SDS011;1899;49.966;7.106;2023-05-10T11:46:34;4.43;;;1.97;;
3767;SDS011;1899;49.966;7.106;2023-05-10T11:49:01;5.27;;;2.00;;
3767;SDS011;1899;49.966;7.106;2023-05-10T11:51:28;3.87;;;2.00;;
3767;SDS011;1899;49.966;7.106;2023-05-10T11:53:54;3.50;;;1.67;;
3767;SDS011;1899;49.966;7.106;2023-05-10T11:56:20;4.87;;;2.10;;
3767;SDS011;1899;49.966;7.106;2023-05-10T11:58:51;2.27;;;2.00;;
3767;SDS011;1899;49.966;7.106;2023-05-10T12:01:16;2.60;;;1.80;;
3767;SDS011;1899;49.966;7.106;2023-05-10T12:03:42;2.37;;;1.70;;
3767;SDS011;1899;49.966;7.106;2023-05-10T12:06:07;2.70;;;2.50;;
3767;SDS011;1899;49.966;7.106;2023-05-10T12:08:32;3.17;;;1.67;;
3767;SDS011;1899;49.966;7.106;2023-05-10T12:11:05;4.53;;;1.90;;
3767;SDS011;1899;49.966;7.106;2023-05-10T12:13:30;3.10;;;1.87;;
3767;SDS011;1899;49.966;7.106;2023-05-10T12:15:58;1.63;;;1.50;;
3767;SDS011;1899;49.966;7.106;2023-05-10T12:18:24;3.90;;;1.43;;
3767;SDS011;1899;49.966;7.106;2023-05-10T12:20:52;1.83;;;1.60;;
3767;SDS011;1899;49.966;7.106;2023-05-10T12:23:20;2.30;;;1.37;;
3767;SDS011;1899;49.966;7.106;2023-05-10T12:25:46;3.03;;;1.30;;
3767;SDS011;1899;49.966;7.106;2023-05-10T12:28:11;1.57;;;1.40;;
3767;SDS011;1899;49.966;7.106;2023-05-10T12:30:36;2.77;;;1.13;;
3767;SDS011;1899;49.966;7.106;2023-05-10T12:33:07;4.27;;;1.33;;
3767;SDS011;1899;49.966;7.106;2023-05-10T12:35:32;2.80;;;1.60;;
3767;SDS011;1899;49.966;7.106;2023-05-10T12:37:58;3.00;;;1.50;;
3767;SDS011;1899;49.966;7.106;2023-05-10T12:40:23;3.20;;;1.80;;
3767;SDS011;1899;49.966;7.106;2023-05-10T12:42:48;2.63;;;2.00;;
3767;SDS011;1899;49.966;7.106;2023-05-10T12:45:14;2.70;;;1.53;;
3767;SDS011;1899;49.966;7.106;2023-05-10T12:47:39;1.97;;;1.57;;
3767;SDS011;1899;49.966;7.106;2023-05-10T12:50:05;2.50;;;1.33;;
3767;SDS011;1899;49.966;7.106;2023-05-10T12:52:31;7.90;;;1.93;;
3767;SDS011;1899;49.966;7.106;2023-05-10T12:54:59;4.67;;;1.70;;
3767;SDS011;1899;49.966;7.106;2023-05-10T12:57:25;5.63;;;1.60;;
3767;SDS011;1899;49.966;7.106;2023-05-10T12:59:50;3.63;;;1.50;;
3767;SDS011;1899;49.966;7.106;2023-05-10T13:02:15;2.30;;;1.30;;
3767;SDS011;1899;49.966;7.106;2023-05-10T13:04:43;4.87;;;1.83;;
3767;SDS011;1899;49.966;7.106;2023-05-10T13:07:09;3.10;;;1.50;;
3767;SDS011;1899;49.966;7.106;2023-05-10T13:09:34;2.10;;;1.90;;
3767;SDS011;1899;49.966;7.106;2023-05-10T13:11:59;3.33;;;1.47;;
3767;SDS011;1899;49.966;7.106;2023-05-10T13:14:25;5.30;;;1.93;;
3767;SDS011;1899;49.966;7.106;2023-05-10T13:16:50;1.90;;;1.40;;
3767;SDS011;1899;49.966;7.106;2023-05-10T13:19:16;1.73;;;1.50;;
3767;SDS011;1899;49.966;7.106;2023-05-10T13:21:41;3.90;;;1.40;;
3767;SDS011;1899;49.966;7.106;2023-05-10T13:24:07;2.33;;;1.37;;
3767;SDS011;1899;49.966;7.106;2023-05-10T13:26:32;5.70;;;1.67;;
3767;SDS011;1899;49.966;7.106;2023-05-10T13:28:57;4.57;;;1.50;;
3767;SDS011;1899;49.966;7.106;2023-05-10T13:31:23;2.03;;;1.30;;
3767;SDS011;1899;49.966;7.106;2023-05-10T13:33:48;3.90;;;1.20;;
3767;SDS011;1899;49.966;7.106;2023-05-10T13:36:13;3.33;;;1.30;;
3767;SDS011;1899;49.966;7.106;2023-05-10T13:38:39;2.63;;;1.10;;
3767;SDS011;1899;49.966;7.106;2023-05-10T13:41:04;1.93;;;1.00;;
3767;SDS011;1899;49.966;7.106;2023-05-10T13:43:29;2.80;;;1.30;;
3767;SDS011;1899;49.966;7.106;2023-05-10T13:45:55;2.83;;;1.10;;
3767;SDS011;1899;49.966;7.106;2023-05-10T13:48:20;3.83;;;1.40;;
3767;SDS011;1899;49.966;7.106;2023-05-10T13:50:46;3.93;;;0.93;;
3767;SDS011;1899;49.966;7.106;2023-05-10T13:53:11;6.30;;;1.07;;
3767;SDS011;1899;49.966;7.106;2023-05-10T13:55:36;2.00;;;0.97;;
3767;SDS011;1899;49.966;7.106;2023-05-10T13:58:01;1.73;;;1.30;;
3767;SDS011;1899;49.966;7.106;2023-05-10T14:00:27;1.90;;;1.20;;
3767;SDS011;1899;49.966;7.106;2023-05-10T14:02:52;3.33;;;1.30;;
3767;SDS011;1899;49.966;7.106;2023-05-10T14:05:17;1.67;;;1.13;;
3767;SDS011;1899;49.966;7.106;2023-05-10T14:07:42;2.77;;;1.50;;
3767;SDS011;1899;49.966;7.106;2023-05-10T14:10:08;2.00;;;1.40;;
3767;SDS011;1899;49.966;7.106;2023-05-10T14:12:33;4.83;;;1.63;;
3767;SDS011;1899;49.966;7.106;2023-05-10T14:14:58;5.97;;;1.50;;
3767;SDS011;1899;49.966;7.106;2023-05-10T14:17:24;1.70;;;1.13;;
3767;SDS011;1899;49.966;7.106;2023-05-10T14:19:49;3.27;;;1.30;;
3767;SDS011;1899;49.966;7.106;2023-05-10T14:22:14;1.80;;;1.10;;
3767;SDS011;1899;49.966;7.106;2023-05-10T14:24:40;3.20;;;1.13;;
3767;SDS011;1899;49.966;7.106;2023-05-10T14:27:05;3.73;;;1.20;;
3767;SDS011;1899;49.966;7.106;2023-05-10T14:29:31;4.30;;;1.10;;
3767;SDS011;1899;49.966;7.106;2023-05-10T14:31:56;3.20;;;1.30;;
3767;SDS011;1899;49.966;7.106;2023-05-10T14:34:21;3.17;;;0.90;;
3767;SDS011;1899;49.966;7.106;2023-05-10T14:36:46;3.03;;;1.50;;
3767;SDS011;1899;49.966;7.106;2023-05-10T14:39:12;2.40;;;1.23;;
3767;SDS011;1899;49.966;7.106;2023-05-10T14:41:38;1.77;;;1.50;;
3767;SDS011;1899;49.966;7.106;2023-05-10T14:44:05;3.53;;;1.50;;
3767;SDS011;1899;49.966;7.106;2023-05-10T14:46:31;1.30;;;1.00;;
3767;SDS011;1899;49.966;7.106;2023-05-10T14:48:56;3.67;;;1.33;;
3767;SDS011;1899;49.966;7.106;2023-05-10T14:51:21;3.57;;;1.63;;
3767;SDS011;1899;49.966;7.106;2023-05-10T14:53:47;1.30;;;1.00;;
3767;SDS011;1899;49.966;7.106;2023-05-10T14:56:13;3.93;;;1.33;;
3767;SDS011;1899;49.966;7.106;2023-05-10T14:58:38;6.27;;;1.53;;
3767;SDS011;1899;49.966;7.106;2023-05-10T15:01:03;1.77;;;1.00;;
3767;SDS011;1899;49.966;7.106;2023-05-10T15:03:28;2.03;;;1.10;;
3767;SDS011;1899;49.966;7.106;2023-05-10T15:05:54;2.27;;;1.00;;
3767;SDS011;1899;49.966;7.106;2023-05-10T15:08:21;2.00;;;0.93;;
3767;SDS011;1899;49.966;7.106;2023-05-10T15:10:46;6.73;;;1.67;;
3767;SDS011;1899;49.966;7.106;2023-05-10T15:13:11;4.60;;;1.30;;
3767;SDS011;1899;49.966;7.106;2023-05-10T15:15:37;1.80;;;1.10;;
3767;SDS011;1899;49.966;7.106;2023-05-10T15:18:02;1.63;;;1.10;;
3767;SDS011;1899;49.966;7.106;2023-05-10T15:20:27;2.50;;;0.80;;
3767;SDS011;1899;49.966;7.106;2023-05-10T15:22:52;1.77;;;1.17;;
3767;SDS011;1899;49.966;7.106;2023-05-10T15:25:18;1.83;;;0.90;;
3767;SDS011;1899;49.966;7.106;2023-05-10T15:27:43;2.50;;;0.80;;
3767;SDS011;1899;49.966;7.106;2023-05-10T15:30:09;1.67;;;0.90;;
3767;SDS011;1899;49.966;7.106;2023-05-10T15:32:34;2.33;;;1.10;;
3767;SDS011;1899;49.966;7.106;2023-05-10T15:34:59;2.03;;;1.20;;